sensor_id;sensor_type;location;lat;lon;timestamp;temperature;humidity
74384;DHT22;62824;52.994;-3.936;2023-07-22T00:01:02;14.10;99.90
74384;DHT22;62824;52.994;-3.936;2023-07-22T00:03:28;14.10;99.90
74384;DHT22;62824;52.994;-3.936;2023-07-22T00:06:08;14.20;99.90
74384;DHT22;62824;52.994;-3.936;2023-07-22T00:08:35;14.20;99.90
74384;DHT22;62824;52.994;-3.936;2023-07-22T00:11:01;14.10;99.90
74384;DHT22;62824;52.994;-3.936;2023-07-22T00:13:27;14.20;99.90
74384;DHT22;62824;52.994;-3.936;2023-07-22T00:15:54;14.20;99.90
74384;DHT22;62824;52.994;-3.936;2023-07-22T00:18:20;14.30;99.90
74384;DHT22;62824;52.994;-3.936;2023-07-22T00:20:46;14.20;99.90
74384;DHT22;62824;52.994;-3.936;2023-07-22T00:23:13;14.30;99.90
74384;DHT22;62824;52.994;-3.936;2023-07-22T00:25:40;14.30;99.90
74384;DHT22;62824;52.994;-3.936;2023-07-22T00:28:07;14.30;99.90
74384;DHT22;62824;52.994;-3.936;2023-07-22T00:30:33;14.40;99.90
74384;DHT22;62824;52.994;-3.936;2023-07-22T00:33:00;14.30;99.90
74384;DHT22;62824;52.994;-3.936;2023-07-22T00:35:26;14.30;99.90
74384;DHT22;62824;52.994;-3.936;2023-07-22T00:37:52;14.30;99.90
74384;DHT22;62824;52.994;-3.936;2023-07-22T00:40:18;14.40;99.90
74384;DHT22;62824;52.994;-3.936;2023-07-22T00:42:44;14.30;99.90
74384;DHT22;62824;52.994;-3.936;2023-07-22T00:45:10;14.30;99.90
74384;DHT22;62824;52.994;-3.936;2023-07-22T00:47:37;14.30;99.90
74384;DHT22;62824;52.994;-3.936;2023-07-22T00:50:04;14.30;99.90
74384;DHT22;62824;52.994;-3.936;2023-07-22T00:52:32;14.30;99.90
74384;DHT22;62824;52.994;-3.936;2023-07-22T00:54:59;14.20;99.90
74384;DHT22;62824;52.994;-3.936;2023-07-22T00:57:25;14.20;99.90
74384;DHT22;62824;52.994;-3.936;2023-07-22T00:59:51;14.20;99.90
74384;DHT22;62824;52.994;-3.936;2023-07-22T01:02:18;14.20;99.90
74384;DHT22;62824;52.994;-3.936;2023-07-22T01:04:44;14.20;99.90
74384;DHT22;62824;52.994;-3.936;2023-07-22T01:07:11;14.20;99.90
74384;DHT22;62824;52.994;-3.936;2023-07-22T01:09:41;14.20;99.90
74384;DHT22;62824;52.994;-3.936;2023-07-22T01:12:07;14.30;99.90
74384;DHT22;62824;52.994;-3.936;2023-07-22T01:14:38;14.20;99.90
74384;DHT22;62824;52.994;-3.936;2023-07-22T01:17:06;14.20;99.90
74384;DHT22;62824;52.994;-3.936;2023-07-22T01:19:32;14.20;99.90
74384;DHT22;62824;52.994;-3.936;2023-07-22T01:22:06;14.20;99.90
74384;DHT22;62824;52.994;-3.936;2023-07-22T01:24:34;14.20;99.90
74384;DHT22;62824;52.994;-3.936;2023-07-22T01:27:00;14.20;99.90
74384;DHT22;62824;52.994;-3.936;2023-07-22T01:29:26;14.20;99.90
74384;DHT22;62824;52.994;-3.936;2023-07-22T01:31:53;14.20;99.90
74384;DHT22;62824;52.994;-3.936;2023-07-22T01:34:20;14.10;99.90
74384;DHT22;62824;52.994;-3.936;2023-07-22T01:36:47;14.10;99.90
74384;DHT22;62824;52.994;-3.936;2023-07-22T01:39:15;14.10;99.90
74384;DHT22;62824;52.994;-3.936;2023-07-22T01:41:41;14.10;99.90
74384;DHT22;62824;52.994;-3.936;2023-07-22T01:44:07;14.10;99.90
74384;DHT22;62824;52.994;-3.936;2023-07-22T01:46:34;14.10;99.90
74384;DHT22;62824;52.994;-3.936;2023-07-22T01:49:01;14.00;99.90
74384;DHT22;62824;52.994;-3.936;2023-07-22T01:51:27;14.00;99.90
74384;DHT22;62824;52.994;-3.936;2023-07-22T01:53:53;13.90;99.90
74384;DHT22;62824;52.994;-3.936;2023-07-22T01:56:19;13.90;99.90
74384;DHT22;62824;52.994;-3.936;2023-07-22T01:58:47;13.90;99.90
74384;DHT22;62824;52.994;-3.936;2023-07-22T02:01:13;13.80;99.90
74384;DHT22;62824;52.994;-3.936;2023-07-22T02:03:44;13.80;99.90
74384;DHT22;62824;52.994;-3.936;2023-07-22T02:06:10;13.80;99.90
74384;DHT22;62824;52.994;-3.936;2023-07-22T02:08:36;13.80;99.90
74384;DHT22;62824;52.994;-3.936;2023-07-22T02:11:04;13.90;99.90
74384;DHT22;62824;52.994;-3.936;2023-07-22T02:13:30;13.90;99.90
74384;DHT22;62824;52.994;-3.936;2023-07-22T02:15:57;13.90;99.90
74384;DHT22;62824;52.994;-3.936;2023-07-22T02:18:23;13.90;99.90
74384;DHT22;62824;52.994;-3.936;2023-07-22T02:20:49;13.80;99.90
74384;DHT22;62824;52.994;-3.936;2023-07-22T02:23:15;13.70;99.90
74384;DHT22;62824;52.994;-3.936;2023-07-22T02:25:40;13.70;99.90
74384;DHT22;62824;52.994;-3.936;2023-07-22T02:28:06;13.70;99.90
74384;DHT22;62824;52.994;-3.936;2023-07-22T02:30:38;13.70;99.90
74384;DHT22;62824;52.994;-3.936;2023-07-22T02:33:05;13.80;99.90
74384;DHT22;62824;52.994;-3.936;2023-07-22T02:35:31;13.80;99.90
74384;DHT22;62824;52.994;-3.936;2023-07-22T02:37:57;13.80;99.90
74384;DHT22;62824;52.994;-3.936;2023-07-22T02:40:23;13.70;99.90
74384;DHT22;62824;52.994;-3.936;2023-07-22T02:42:48;13.70;99.90
74384;DHT22;62824;52.994;-3.936;2023-07-22T02:45:14;13.80;99.90
74384;DHT22;62824;52.994;-3.936;2023-07-22T02:47:40;13.80;99.90
74384;DHT22;62824;52.994;-3.936;2023-07-22T02:50:07;13.80;99.90
74384;DHT22;62824;52.994;-3.936;2023-07-22T02:52:33;13.80;99.90
74384;DHT22;62824;52.994;-3.936;2023-07-22T02:55:13;13.80;99.90
74384;DHT22;62824;52.994;-3.936;2023-07-22T02:57:40;13.80;99.90
74384;DHT22;62824;52.994;-3.936;2023-07-22T03:00:07;13.80;99.90
74384;DHT22;62824;52.994;-3.936;2023-07-22T03:02:37;13.80;99.90
74384;DHT22;62824;52.994;-3.936;2023-07-22T03:05:07;13.90;99.90
74384;DHT22;62824;52.994;-3.936;2023-07-22T03:07:40;13.80;99.90
74384;DHT22;62824;52.994;-3.936;2023-07-22T03:10:07;13.90;99.90
74384;DHT22;62824;52.994;-3.936;2023-07-22T03:12:33;13.90;99.90
74384;DHT22;62824;52.994;-3.936;2023-07-22T03:14:59;13.90;99.90
74384;DHT22;62824;52.994;-3.936;2023-07-22T03:17:26;13.80;99.90
74384;DHT22;62824;52.994;-3.936;2023-07-22T03:19:52;13.90;99.90
74384;DHT22;62824;52.994;-3.936;2023-07-22T03:22:18;13.90;99.90
74384;DHT22;62824;52.994;-3.936;2023-07-22T03:24:46;13.90;99.90
74384;DHT22;62824;52.994;-3.936;2023-07-22T03:27:13;13.90;99.90
74384;DHT22;62824;52.994;-3.936;2023-07-22T03:29:41;13.90;99.90
74384;DHT22;62824;52.994;-3.936;2023-07-22T03:32:07;13.90;99.90
74384;DHT22;62824;52.994;-3.936;2023-07-22T03:34:33;13.80;99.90
74384;DHT22;62824;52.994;-3.936;2023-07-22T03:36:59;13.80;99.90
74384;DHT22;62824;52.994;-3.936;2023-07-22T03:39:25;13.80;99.90
74384;DHT22;62824;52.994;-3.936;2023-07-22T03:41:51;13.80;99.90
74384;DHT22;62824;52.994;-3.936;2023-07-22T03:44:16;13.80;99.90
74384;DHT22;62824;52.994;-3.936;2023-07-22T03:46:42;13.80;99.90
74384;DHT22;62824;52.994;-3.936;2023-07-22T03:49:08;13.70;99.90
74384;DHT22;62824;52.994;-3.936;2023-07-22T03:51:34;13.80;99.90
74384;DHT22;62824;52.994;-3.936;2023-07-22T03:54:00;13.80;99.90
74384;DHT22;62824;52.994;-3.936;2023-07-22T03:56:26;13.80;99.90
74384;DHT22;62824;52.994;-3.936;2023-07-22T03:58:52;13.80;99.90
74384;DHT22;62824;52.994;-3.936;2023-07-22T04:01:19;13.70;99.90
74384;DHT22;62824;52.994;-3.936;2023-07-22T04:03:45;13.80;99.90
74384;DHT22;62824;52.994;-3.936;2023-07-22T04:06:11;13.70;99.90
74384;DHT22;62824;52.994;-3.936;2023-07-22T04:08:37;13.80;99.90
74384;DHT22;62824;52.994;-3.936;2023-07-22T04:11:03;13.80;99.90
74384;DHT22;62824;52.994;-3.936;2023-07-22T04:13:29;13.70;99.90
74384;DHT22;62824;52.994;-3.936;2023-07-22T04:15:55;13.80;99.90
74384;DHT22;62824;52.994;-3.936;2023-07-22T04:18:21;13.90;99.90
74384;DHT22;62824;52.994;-3.936;2023-07-22T04:20:47;13.80;99.90
74384;DHT22;62824;52.994;-3.936;2023-07-22T04:23:16;13.90;99.90
74384;DHT22;62824;52.994;-3.936;2023-07-22T04:25:43;13.80;99.90
74384;DHT22;62824;52.994;-3.936;2023-07-22T04:28:09;13.90;99.90
74384;DHT22;62824;52.994;-3.936;2023-07-22T04:30:36;13.90;99.90
74384;DHT22;62824;52.994;-3.936;2023-07-22T04:33:02;13.80;99.90
74384;DHT22;62824;52.994;-3.936;2023-07-22T04:35:32;13.90;99.90
74384;DHT22;62824;52.994;-3.936;2023-07-22T04:37:58;13.90;99.90
74384;DHT22;62824;52.994;-3.936;2023-07-22T04:40:25;13.90;99.90
74384;DHT22;62824;52.994;-3.936;2023-07-22T04:42:51;13.90;99.90
74384;DHT22;62824;52.994;-3.936;2023-07-22T04:45:17;13.90;99.90
74384;DHT22;62824;52.994;-3.936;2023-07-22T04:47:46;13.90;99.90
74384;DHT22;62824;52.994;-3.936;2023-07-22T04:50:13;13.90;99.90
74384;DHT22;62824;52.994;-3.936;2023-07-22T04:52:41;14.00;99.90
74384;DHT22;62824;52.994;-3.936;2023-07-22T04:55:08;13.90;99.90
74384;DHT22;62824;52.994;-3.936;2023-07-22T04:57:37;14.00;99.90
74384;DHT22;62824;52.994;-3.936;2023-07-22T05:00:04;14.00;99.90
74384;DHT22;62824;52.994;-3.936;2023-07-22T05:02:31;14.00;99.90
74384;DHT22;62824;52.994;-3.936;2023-07-22T05:04:56;14.00;99.90
74384;DHT22;62824;52.994;-3.936;2023-07-22T05:07:22;14.10;99.90
74384;DHT22;62824;52.994;-3.936;2023-07-22T05:09:49;14.10;99.90
74384;DHT22;62824;52.994;-3.936;2023-07-22T05:12:15;14.10;99.90
74384;DHT22;62824;52.994;-3.936;2023-07-22T05:14:41;14.10;99.90
74384;DHT22;62824;52.994;-3.936;2023-07-22T05:17:07;14.10;99.90
74384;DHT22;62824;52.994;-3.936;2023-07-22T05:19:33;14.10;99.90
74384;DHT22;62824;52.994;-3.936;2023-07-22T05:21:59;14.10;99.90
74384;DHT22;62824;52.994;-3.936;2023-07-22T05:24:25;14.00;99.90
74384;DHT22;62824;52.994;-3.936;2023-07-22T05:26:50;14.10;99.90
74384;DHT22;62824;52.994;-3.936;2023-07-22T05:29:16;14.10;99.90
74384;DHT22;62824;52.994;-3.936;2023-07-22T05:31:42;14.10;99.90
74384;DHT22;62824;52.994;-3.936;2023-07-22T05:34:08;14.10;99.90
74384;DHT22;62824;52.994;-3.936;2023-07-22T05:36:34;14.10;99.90
74384;DHT22;62824;52.994;-3.936;2023-07-22T05:39:00;14.10;99.90
74384;DHT22;62824;52.994;-3.936;2023-07-22T05:41:26;14.10;99.90
74384;DHT22;62824;52.994;-3.936;2023-07-22T05:43:52;14.20;99.90
74384;DHT22;62824;52.994;-3.936;2023-07-22T05:46:18;14.10;99.90
74384;DHT22;62824;52.994;-3.936;2023-07-22T05:48:43;14.20;99.90
74384;DHT22;62824;52.994;-3.936;2023-07-22T05:51:10;14.20;99.90
74384;DHT22;62824;52.994;-3.936;2023-07-22T05:53:35;14.10;99.90
74384;DHT22;62824;52.994;-3.936;2023-07-22T05:56:01;14.10;99.90
74384;DHT22;62824;52.994;-3.936;2023-07-22T05:58:27;14.10;99.90
74384;DHT22;62824;52.994;-3.936;2023-07-22T06:00:54;14.10;99.90
74384;DHT22;62824;52.994;-3.936;2023-07-22T06:03:20;14.10;99.90
74384;DHT22;62824;52.994;-3.936;2023-07-22T06:05:47;14.10;99.90
74384;DHT22;62824;52.994;-3.936;2023-07-22T06:08:13;14.10;99.90
74384;DHT22;62824;52.994;-3.936;2023-07-22T06:10:40;14.10;99.90
74384;DHT22;62824;52.994;-3.936;2023-07-22T06:13:06;14.20;99.90
74384;DHT22;62824;52.994;-3.936;2023-07-22T06:15:32;14.20;99.90
74384;DHT22;62824;52.994;-3.936;2023-07-22T06:17:59;14.20;99.90
74384;DHT22;62824;52.994;-3.936;2023-07-22T06:20:25;14.20;99.90
74384;DHT22;62824;52.994;-3.936;2023-07-22T06:22:51;14.20;99.90
74384;DHT22;62824;52.994;-3.936;2023-07-22T06:25:17;14.20;99.90
74384;DHT22;62824;52.994;-3.936;2023-07-22T06:27:43;14.20;99.90
74384;DHT22;62824;52.994;-3.936;2023-07-22T06:30:09;14.20;99.90
74384;DHT22;62824;52.994;-3.936;2023-07-22T06:32:39;14.30;99.90
74384;DHT22;62824;52.994;-3.936;2023-07-22T06:35:05;14.30;99.90
74384;DHT22;62824;52.994;-3.936;2023-07-22T06:37:31;14.30;99.90
74384;DHT22;62824;52.994;-3.936;2023-07-22T06:39:57;14.30;99.90
74384;DHT22;62824;52.994;-3.936;2023-07-22T06:42:23;14.30;99.90
74384;DHT22;62824;52.994;-3.936;2023-07-22T06:44:49;14.40;99.90
74384;DHT22;62824;52.994;-3.936;2023-07-22T06:47:15;14.40;99.90
74384;DHT22;62824;52.994;-3.936;2023-07-22T06:49:41;14.40;99.90
74384;DHT22;62824;52.994;-3.936;2023-07-22T06:52:07;14.40;99.90
74384;DHT22;62824;52.994;-3.936;2023-07-22T06:54:34;14.40;99.90
74384;DHT22;62824;52.994;-3.936;2023-07-22T06:57:00;14.40;99.90
74384;DHT22;62824;52.994;-3.936;2023-07-22T06:59:26;14.40;99.90
74384;DHT22;62824;52.994;-3.936;2023-07-22T07:01:52;14.50;99.90
74384;DHT22;62824;52.994;-3.936;2023-07-22T07:04:19;14.50;99.90
74384;DHT22;62824;52.994;-3.936;2023-07-22T07:06:44;14.40;99.90
74384;DHT22;62824;52.994;-3.936;2023-07-22T07:09:11;14.50;99.90
74384;DHT22;62824;52.994;-3.936;2023-07-22T07:11:38;14.40;99.90
74384;DHT22;62824;52.994;-3.936;2023-07-22T07:14:04;14.50;99.90
74384;DHT22;62824;52.994;-3.936;2023-07-22T07:16:31;14.50;99.90
74384;DHT22;62824;52.994;-3.936;2023-07-22T07:18:58;14.50;99.90
74384;DHT22;62824;52.994;-3.936;2023-07-22T07:21:24;14.50;99.90
74384;DHT22;62824;52.994;-3.936;2023-07-22T07:23:51;14.50;99.90
74384;DHT22;62824;52.994;-3.936;2023-07-22T07:26:17;14.50;99.90
74384;DHT22;62824;52.994;-3.936;2023-07-22T07:28:44;14.50;99.90
74384;DHT22;62824;52.994;-3.936;2023-07-22T07:31:09;14.50;99.90
74384;DHT22;62824;52.994;-3.936;2023-07-22T07:33:36;14.50;99.90
74384;DHT22;62824;52.994;-3.936;2023-07-22T07:36:02;14.50;99.90
74384;DHT22;62824;52.994;-3.936;2023-07-22T07:38:29;14.50;99.90
74384;DHT22;62824;52.994;-3.936;2023-07-22T07:41:05;14.60;99.90
74384;DHT22;62824;52.994;-3.936;2023-07-22T07:43:37;14.50;99.90
74384;DHT22;62824;52.994;-3.936;2023-07-22T07:48:57;14.60;99.90
74384;DHT22;62824;52.994;-3.936;2023-07-22T07:51:25;14.60;99.90
74384;DHT22;62824;52.994;-3.936;2023-07-22T07:53:53;14.60;99.90
74384;DHT22;62824;52.994;-3.936;2023-07-22T07:56:19;14.70;99.90
74384;DHT22;62824;52.994;-3.936;2023-07-22T07:58:48;14.70;99.90
74384;DHT22;62824;52.994;-3.936;2023-07-22T08:01:15;14.70;99.90
74384;DHT22;62824;52.994;-3.936;2023-07-22T08:03:42;14.70;99.90
74384;DHT22;62824;52.994;-3.936;2023-07-22T08:06:08;14.70;99.90
74384;DHT22;62824;52.994;-3.936;2023-07-22T08:08:35;14.70;99.90
74384;DHT22;62824;52.994;-3.936;2023-07-22T08:11:06;14.70;99.90
74384;DHT22;62824;52.994;-3.936;2023-07-22T08:13:33;14.70;99.90
74384;DHT22;62824;52.994;-3.936;2023-07-22T08:16:06;14.70;99.90
74384;DHT22;62824;52.994;-3.936;2023-07-22T08:18:33;14.70;99.90
74384;DHT22;62824;52.994;-3.936;2023-07-22T08:21:00;14.60;99.90
74384;DHT22;62824;52.994;-3.936;2023-07-22T08:23:28;14.70;99.90
74384;DHT22;62824;52.994;-3.936;2023-07-22T08:25:53;14.60;99.90
74384;DHT22;62824;52.994;-3.936;2023-07-22T08:28:19;14.60;99.90
74384;DHT22;62824;52.994;-3.936;2023-07-22T08:30:45;14.70;99.90
74384;DHT22;62824;52.994;-3.936;2023-07-22T08:33:11;14.70;99.90
74384;DHT22;62824;52.994;-3.936;2023-07-22T08:35:38;14.70;99.90
74384;DHT22;62824;52.994;-3.936;2023-07-22T08:38:05;14.70;99.90
74384;DHT22;62824;52.994;-3.936;2023-07-22T08:40:39;14.80;99.90
74384;DHT22;62824;52.994;-3.936;2023-07-22T08:43:08;14.80;99.90
74384;DHT22;62824;52.994;-3.936;2023-07-22T08:45:38;14.80;99.90
74384;DHT22;62824;52.994;-3.936;2023-07-22T08:48:08;14.90;99.90
74384;DHT22;62824;52.994;-3.936;2023-07-22T08:50:48;14.90;99.90
74384;DHT22;62824;52.994;-3.936;2023-07-22T08:53:15;14.90;99.90
74384;DHT22;62824;52.994;-3.936;2023-07-22T08:55:44;14.90;99.90
74384;DHT22;62824;52.994;-3.936;2023-07-22T08:58:10;14.90;99.90
74384;DHT22;62824;52.994;-3.936;2023-07-22T09:00:38;14.90;99.90
74384;DHT22;62824;52.994;-3.936;2023-07-22T09:03:04;15.00;99.90
74384;DHT22;62824;52.994;-3.936;2023-07-22T09:05:34;15.00;99.90
74384;DHT22;62824;52.994;-3.936;2023-07-22T09:08:03;15.00;99.90
74384;DHT22;62824;52.994;-3.936;2023-07-22T09:10:30;15.00;99.90
74384;DHT22;62824;52.994;-3.936;2023-07-22T09:12:56;15.00;99.90
74384;DHT22;62824;52.994;-3.936;2023-07-22T09:15:23;15.00;99.90
74384;DHT22;62824;52.994;-3.936;2023-07-22T09:17:49;15.10;99.90
74384;DHT22;62824;52.994;-3.936;2023-07-22T09:20:16;15.10;99.90
74384;DHT22;62824;52.994;-3.936;2023-07-22T09:22:49;15.10;99.90
74384;DHT22;62824;52.994;-3.936;2023-07-22T09:25:18;15.10;99.90
74384;DHT22;62824;52.994;-3.936;2023-07-22T09:27:55;15.20;99.90
74384;DHT22;62824;52.994;-3.936;2023-07-22T09:30:26;15.10;99.90
74384;DHT22;62824;52.994;-3.936;2023-07-22T09:32:54;15.20;99.90
74384;DHT22;62824;52.994;-3.936;2023-07-22T09:35:21;15.20;99.90
74384;DHT22;62824;52.994;-3.936;2023-07-22T09:37:47;15.20;99.90
74384;DHT22;62824;52.994;-3.936;2023-07-22T09:40:21;15.30;99.90
74384;DHT22;62824;52.994;-3.936;2023-07-22T09:42:52;15.30;99.90
74384;DHT22;62824;52.994;-3.936;2023-07-22T09:45:21;15.30;99.90
74384;DHT22;62824;52.994;-3.936;2023-07-22T09:47:48;15.30;99.90
74384;DHT22;62824;52.994;-3.936;2023-07-22T09:50:17;15.30;99.90
74384;DHT22;62824;52.994;-3.936;2023-07-22T09:52:45;15.40;99.90
74384;DHT22;62824;52.994;-3.936;2023-07-22T09:55:12;15.30;99.90
74384;DHT22;62824;52.994;-3.936;2023-07-22T09:57:43;15.30;99.90
74384;DHT22;62824;52.994;-3.936;2023-07-22T10:00:11;15.30;99.90
74384;DHT22;62824;52.994;-3.936;2023-07-22T10:02:39;15.40;99.90
74384;DHT22;62824;52.994;-3.936;2023-07-22T10:05:06;15.40;99.90
74384;DHT22;62824;52.994;-3.936;2023-07-22T10:07:35;15.40;99.90
74384;DHT22;62824;52.994;-3.936;2023-07-22T10:10:01;15.40;99.90
74384;DHT22;62824;52.994;-3.936;2023-07-22T10:12:28;15.40;99.90
74384;DHT22;62824;52.994;-3.936;2023-07-22T10:14:53;15.40;99.90
74384;DHT22;62824;52.994;-3.936;2023-07-22T10:17:20;15.40;99.90
74384;DHT22;62824;52.994;-3.936;2023-07-22T10:19:47;15.40;99.90
74384;DHT22;62824;52.994;-3.936;2023-07-22T10:22:13;15.40;99.90
74384;DHT22;62824;52.994;-3.936;2023-07-22T10:24:40;15.50;99.90
74384;DHT22;62824;52.994;-3.936;2023-07-22T10:27:07;15.50;99.90
74384;DHT22;62824;52.994;-3.936;2023-07-22T10:29:34;15.50;99.90
74384;DHT22;62824;52.994;-3.936;2023-07-22T10:32:00;15.50;99.90
74384;DHT22;62824;52.994;-3.936;2023-07-22T10:34:26;15.50;99.90
74384;DHT22;62824;52.994;-3.936;2023-07-22T10:36:53;15.50;99.90
74384;DHT22;62824;52.994;-3.936;2023-07-22T10:39:27;15.60;99.90
74384;DHT22;62824;52.994;-3.936;2023-07-22T10:42:01;15.60;99.90
74384;DHT22;62824;52.994;-3.936;2023-07-22T10:44:32;15.60;99.90
74384;DHT22;62824;52.994;-3.936;2023-07-22T10:46:59;15.70;99.90
74384;DHT22;62824;52.994;-3.936;2023-07-22T10:49:41;15.70;99.90
74384;DHT22;62824;52.994;-3.936;2023-07-22T10:52:11;15.70;99.90
74384;DHT22;62824;52.994;-3.936;2023-07-22T10:54:37;15.80;99.90
74384;DHT22;62824;52.994;-3.936;2023-07-22T10:57:25;15.80;99.90
74384;DHT22;62824;52.994;-3.936;2023-07-22T10:59:51;15.80;99.90
74384;DHT22;62824;52.994;-3.936;2023-07-22T11:02:25;15.80;99.90
74384;DHT22;62824;52.994;-3.936;2023-07-22T11:04:51;15.80;99.90
74384;DHT22;62824;52.994;-3.936;2023-07-22T11:07:30;15.90;99.90
74384;DHT22;62824;52.994;-3.936;2023-07-22T11:09:57;15.90;99.90
74384;DHT22;62824;52.994;-3.936;2023-07-22T11:12:25;15.90;99.90
74384;DHT22;62824;52.994;-3.936;2023-07-22T11:14:52;16.00;99.90
74384;DHT22;62824;52.994;-3.936;2023-07-22T11:17:28;16.00;99.90
74384;DHT22;62824;52.994;-3.936;2023-07-22T11:19:59;16.00;99.90
74384;DHT22;62824;52.994;-3.936;2023-07-22T11:22:28;16.10;99.90
74384;DHT22;62824;52.994;-3.936;2023-07-22T11:25:00;16.10;99.90
74384;DHT22;62824;52.994;-3.936;2023-07-22T11:27:26;16.10;99.90
74384;DHT22;62824;52.994;-3.936;2023-07-22T11:29:52;16.20;99.90
74384;DHT22;62824;52.994;-3.936;2023-07-22T11:32:19;16.20;99.90
74384;DHT22;62824;52.994;-3.936;2023-07-22T11:34:47;16.20;99.90
74384;DHT22;62824;52.994;-3.936;2023-07-22T11:37:14;16.30;99.90
74384;DHT22;62824;52.994;-3.936;2023-07-22T11:39:40;16.30;99.90
74384;DHT22;62824;52.994;-3.936;2023-07-22T11:42:08;16.30;99.90
74384;DHT22;62824;52.994;-3.936;2023-07-22T11:44:34;16.30;99.90
74384;DHT22;62824;52.994;-3.936;2023-07-22T11:47:06;16.40;99.90
74384;DHT22;62824;52.994;-3.936;2023-07-22T11:49:40;16.40;99.90
74384;DHT22;62824;52.994;-3.936;2023-07-22T11:54:40;16.40;99.90
74384;DHT22;62824;52.994;-3.936;2023-07-22T11:59:49;16.40;99.90
74384;DHT22;62824;52.994;-3.936;2023-07-22T12:02:20;16.40;99.90
74384;DHT22;62824;52.994;-3.936;2023-07-22T12:04:56;16.40;99.90
74384;DHT22;62824;52.994;-3.936;2023-07-22T12:07:28;16.40;99.90
74384;DHT22;62824;52.994;-3.936;2023-07-22T12:09:56;16.50;99.90
74384;DHT22;62824;52.994;-3.936;2023-07-22T12:12:32;16.50;99.90
74384;DHT22;62824;52.994;-3.936;2023-07-22T12:15:09;16.50;99.90
74384;DHT22;62824;52.994;-3.936;2023-07-22T12:17:45;16.50;99.90
74384;DHT22;62824;52.994;-3.936;2023-07-22T12:20:12;16.50;99.90
74384;DHT22;62824;52.994;-3.936;2023-07-22T12:22:37;16.60;99.90
74384;DHT22;62824;52.994;-3.936;2023-07-22T12:25:04;16.60;99.90
74384;DHT22;62824;52.994;-3.936;2023-07-22T12:27:31;16.70;99.90
74384;DHT22;62824;52.994;-3.936;2023-07-22T12:29:56;16.70;99.90
74384;DHT22;62824;52.994;-3.936;2023-07-22T12:32:22;16.70;99.90
74384;DHT22;62824;52.994;-3.936;2023-07-22T12:34:48;16.70;99.90
74384;DHT22;62824;52.994;-3.936;2023-07-22T12:37:14;16.70;99.90
74384;DHT22;62824;52.994;-3.936;2023-07-22T12:39:39;16.70;99.90
74384;DHT22;62824;52.994;-3.936;2023-07-22T12:42:05;16.80;99.90
74384;DHT22;62824;52.994;-3.936;2023-07-22T12:44:31;16.90;99.90
74384;DHT22;62824;52.994;-3.936;2023-07-22T12:46:57;16.90;99.90
74384;DHT22;62824;52.994;-3.936;2023-07-22T12:49:23;16.90;99.90
74384;DHT22;62824;52.994;-3.936;2023-07-22T12:51:48;16.90;99.90
74384;DHT22;62824;52.994;-3.936;2023-07-22T12:54:14;16.90;99.90
74384;DHT22;62824;52.994;-3.936;2023-07-22T12:56:40;16.90;99.90
74384;DHT22;62824;52.994;-3.936;2023-07-22T12:59:08;16.90;99.90
74384;DHT22;62824;52.994;-3.936;2023-07-22T13:01:34;17.00;99.90
74384;DHT22;62824;52.994;-3.936;2023-07-22T13:04:04;17.10;99.90
74384;DHT22;62824;52.994;-3.936;2023-07-22T13:06:30;17.10;99.90
74384;DHT22;62824;52.994;-3.936;2023-07-22T13:08:56;17.00;99.90
74384;DHT22;62824;52.994;-3.936;2023-07-22T13:11:22;17.10;99.90
74384;DHT22;62824;52.994;-3.936;2023-07-22T13:13:48;17.10;99.90
74384;DHT22;62824;52.994;-3.936;2023-07-22T13:16:14;17.00;99.90
74384;DHT22;62824;52.994;-3.936;2023-07-22T13:18:40;17.00;99.90
74384;DHT22;62824;52.994;-3.936;2023-07-22T13:21:05;17.00;99.90
74384;DHT22;62824;52.994;-3.936;2023-07-22T13:23:31;16.90;99.90
74384;DHT22;62824;52.994;-3.936;2023-07-22T13:25:57;16.90;99.90
74384;DHT22;62824;52.994;-3.936;2023-07-22T13:28:23;17.00;99.90
74384;DHT22;62824;52.994;-3.936;2023-07-22T13:30:49;17.00;99.90
74384;DHT22;62824;52.994;-3.936;2023-07-22T13:33:14;16.90;99.90
74384;DHT22;62824;52.994;-3.936;2023-07-22T13:35:40;16.80;99.90
74384;DHT22;62824;52.994;-3.936;2023-07-22T13:38:07;16.80;99.90
74384;DHT22;62824;52.994;-3.936;2023-07-22T13:40:33;16.60;99.90
74384;DHT22;62824;52.994;-3.936;2023-07-22T13:42:59;16.60;99.90
74384;DHT22;62824;52.994;-3.936;2023-07-22T13:45:26;16.50;99.90
74384;DHT22;62824;52.994;-3.936;2023-07-22T13:47:52;16.40;99.90
74384;DHT22;62824;52.994;-3.936;2023-07-22T13:50:18;16.40;99.90
74384;DHT22;62824;52.994;-3.936;2023-07-22T13:52:43;16.40;99.90
74384;DHT22;62824;52.994;-3.936;2023-07-22T13:55:09;16.40;99.90
74384;DHT22;62824;52.994;-3.936;2023-07-22T13:57:36;16.40;99.90
74384;DHT22;62824;52.994;-3.936;2023-07-22T14:00:02;16.40;99.90
74384;DHT22;62824;52.994;-3.936;2023-07-22T14:02:38;16.40;99.90
74384;DHT22;62824;52.994;-3.936;2023-07-22T14:05:04;16.50;99.90
74384;DHT22;62824;52.994;-3.936;2023-07-22T14:07:30;16.50;99.90
74384;DHT22;62824;52.994;-3.936;2023-07-22T14:09:56;16.50;99.90
74384;DHT22;62824;52.994;-3.936;2023-07-22T14:12:22;16.50;99.90
74384;DHT22;62824;52.994;-3.936;2023-07-22T14:14:48;16.50;99.90
74384;DHT22;62824;52.994;-3.936;2023-07-22T14:17:14;16.40;99.90
74384;DHT22;62824;52.994;-3.936;2023-07-22T14:19:40;16.50;99.90
74384;DHT22;62824;52.994;-3.936;2023-07-22T14:22:06;16.50;99.90
74384;DHT22;62824;52.994;-3.936;2023-07-22T14:24:31;16.50;99.90
74384;DHT22;62824;52.994;-3.936;2023-07-22T14:26:57;16.60;99.90
74384;DHT22;62824;52.994;-3.936;2023-07-22T14:29:23;16.70;99.90
74384;DHT22;62824;52.994;-3.936;2023-07-22T14:31:51;16.70;99.90
74384;DHT22;62824;52.994;-3.936;2023-07-22T14:34:17;16.70;99.90
74384;DHT22;62824;52.994;-3.936;2023-07-22T14:36:42;16.80;99.90
74384;DHT22;62824;52.994;-3.936;2023-07-22T14:39:09;16.70;99.90
74384;DHT22;62824;52.994;-3.936;2023-07-22T14:41:35;16.70;99.90
74384;DHT22;62824;52.994;-3.936;2023-07-22T14:44:01;16.70;99.90
74384;DHT22;62824;52.994;-3.936;2023-07-22T14:46:27;16.60;99.90
74384;DHT22;62824;52.994;-3.936;2023-07-22T14:48:53;16.60;99.90
74384;DHT22;62824;52.994;-3.936;2023-07-22T14:51:19;16.60;99.90
74384;DHT22;62824;52.994;-3.936;2023-07-22T14:53:45;16.60;99.90
74384;DHT22;62824;52.994;-3.936;2023-07-22T14:56:11;16.60;99.90
74384;DHT22;62824;52.994;-3.936;2023-07-22T14:58:37;16.50;99.90
74384;DHT22;62824;52.994;-3.936;2023-07-22T15:01:03;16.60;99.90
74384;DHT22;62824;52.994;-3.936;2023-07-22T15:03:29;16.60;99.90
74384;DHT22;62824;52.994;-3.936;2023-07-22T15:05:55;16.70;99.90
74384;DHT22;62824;52.994;-3.936;2023-07-22T15:08:21;16.70;99.90
74384;DHT22;62824;52.994;-3.936;2023-07-22T15:10:47;16.70;99.90
74384;DHT22;62824;52.994;-3.936;2023-07-22T15:13:13;16.70;99.90
74384;DHT22;62824;52.994;-3.936;2023-07-22T15:15:39;16.70;99.90
74384;DHT22;62824;52.994;-3.936;2023-07-22T15:18:05;16.60;99.90
74384;DHT22;62824;52.994;-3.936;2023-07-22T15:20:31;16.70;99.90
74384;DHT22;62824;52.994;-3.936;2023-07-22T15:23:04;16.60;99.90